sensor_id;sensor_type;location;lat;lon;timestamp;pressure;altitude;pressure_sealevel;temperature;humidity
80198;BME280;69517;52.030;7.106;2024-03-02T00:02:15;99196.94;;;21.25;65.56
80198;BME280;69517;52.030;7.106;2024-03-02T00:04:45;99197.91;;;21.24;65.64
80198;BME280;69517;52.030;7.106;2024-03-02T00:07:12;99202.34;;;21.24;65.52
80198;BME280;69517;52.030;7.106;2024-03-02T00:09:40;99205.13;;;21.22;65.54
80198;BME280;69517;52.030;7.106;2024-03-02T00:12:07;99202.50;;;21.22;65.61
80198;BME280;69517;52.030;7.106;2024-03-02T00:14:34;99200.84;;;21.21;65.64
80198;BME280;69517;52.030;7.106;2024-03-02T00:17:00;99200.13;;;21.19;65.62
80198;BME280;69517;52.030;7.106;2024-03-02T00:19:27;99199.31;;;21.19;65.73
80198;BME280;69517;52.030;7.106;2024-03-02T00:21:54;99203.72;;;21.18;65.44
80198;BME280;69517;52.030;7.106;2024-03-02T00:24:21;99203.72;;;21.18;65.48
80198;BME280;69517;52.030;7.106;2024-03-02T00:26:47;99200.13;;;21.19;65.53
80198;BME280;69517;52.030;7.106;2024-03-02T00:29:15;99197.63;;;21.18;65.35
80198;BME280;69517;52.030;7.106;2024-03-02T00:31:41;99192.56;;;21.16;65.41
80198;BME280;69517;52.030;7.106;2024-03-02T00:34:08;99190.03;;;21.15;65.50
80198;BME280;69517;52.030;7.106;2024-03-02T00:36:36;99196.13;;;21.15;65.53
80198;BME280;69517;52.030;7.106;2024-03-02T00:39:03;99187.53;;;21.13;65.59
80198;BME280;69517;52.030;7.106;2024-03-02T00:41:32;99193.75;;;21.12;65.65
80198;BME280;69517;52.030;7.106;2024-03-02T00:43:59;99178.94;;;21.11;65.64
80198;BME280;69517;52.030;7.106;2024-03-02T00:46:27;99187.00;;;21.10;65.76
80198;BME280;69517;52.030;7.106;2024-03-02T00:48:55;99172.31;;;21.07;65.79
80198;BME280;69517;52.030;7.106;2024-03-02T00:51:21;99175.91;;;21.06;65.82
80198;BME280;69517;52.030;7.106;2024-03-02T00:53:48;99173.28;;;21.06;65.72
80198;BME280;69517;52.030;7.106;2024-03-02T00:56:17;99170.66;;;21.06;65.61
80198;BME280;69517;52.030;7.106;2024-03-02T00:58:43;99159.47;;;21.04;65.76
80198;BME280;69517;52.030;7.106;2024-03-02T01:01:10;99156.84;;;21.04;65.67
80198;BME280;69517;52.030;7.106;2024-03-02T01:03:36;99165.69;;;21.03;65.82
80198;BME280;69517;52.030;7.106;2024-03-02T01:06:03;99160.44;;;21.03;65.82
80198;BME280;69517;52.030;7.106;2024-03-02T01:08:30;99161.53;;;21.00;65.88
80198;BME280;69517;52.030;7.106;2024-03-02T01:10:56;99153.78;;;20.99;65.95
80198;BME280;69517;52.030;7.106;2024-03-02T01:13:24;99151.16;;;20.99;65.92
80198;BME280;69517;52.030;7.106;2024-03-02T01:15:50;99159.88;;;20.99;65.90
80198;BME280;69517;52.030;7.106;2024-03-02T01:18:17;99158.22;;;20.98;65.93
80198;BME280;69517;52.030;7.106;2024-03-02T01:20:43;99159.06;;;20.99;65.83
80198;BME280;69517;52.030;7.106;2024-03-02T01:23:09;99166.25;;;20.97;65.86
80198;BME280;69517;52.030;7.106;2024-03-02T01:25:36;99159.34;;;20.96;65.97
80198;BME280;69517;52.030;7.106;2024-03-02T01:28:02;99163.63;;;20.97;65.87
80198;BME280;69517;52.030;7.106;2024-03-02T01:30:30;99155.06;;;20.95;66.04
80198;BME280;69517;52.030;7.106;2024-03-02T01:32:56;99155.06;;;20.95;65.90
80198;BME280;69517;52.030;7.106;2024-03-02T01:35:24;99153.41;;;20.94;65.85
80198;BME280;69517;52.030;7.106;2024-03-02T01:37:50;99147.31;;;20.93;65.85
80198;BME280;69517;52.030;7.106;2024-03-02T01:40:16;99153.41;;;20.94;65.80
80198;BME280;69517;52.030;7.106;2024-03-02T01:42:43;99147.31;;;20.93;65.78
80198;BME280;69517;52.030;7.106;2024-03-02T01:45:09;99146.63;;;20.91;65.83
80198;BME280;69517;52.030;7.106;2024-03-02T01:47:37;99140.56;;;20.91;65.83
80198;BME280;69517;52.030;7.106;2024-03-02T01:50:04;99140.56;;;20.91;65.77
80198;BME280;69517;52.030;7.106;2024-03-02T01:52:30;99136.25;;;20.90;65.86
80198;BME280;69517;52.030;7.106;2024-03-02T01:54:56;99139.03;;;20.88;65.80
80198;BME280;69517;52.030;7.106;2024-03-02T01:57:23;99139.84;;;20.89;65.86
80198;BME280;69517;52.030;7.106;2024-03-02T01:59:49;99135.56;;;20.88;65.88
80198;BME280;69517;52.030;7.106;2024-03-02T02:02:16;99129.66;;;20.86;65.83
80198;BME280;69517;52.030;7.106;2024-03-02T02:04:44;99127.03;;;20.86;65.94
80198;BME280;69517;52.030;7.106;2024-03-02T02:07:10;99128.66;;;20.87;65.84
80198;BME280;69517;52.030;7.106;2024-03-02T02:09:37;99130.63;;;20.85;65.77
80198;BME280;69517;52.030;7.106;2024-03-02T02:12:03;99129.66;;;20.86;65.65
80198;BME280;69517;52.030;7.106;2024-03-02T02:14:31;99125.50;;;20.83;65.79
80198;BME280;69517;52.030;7.106;2024-03-02T02:16:58;99132.53;;;20.83;65.82
80198;BME280;69517;52.030;7.106;2024-03-02T02:19:24;99127.28;;;20.83;65.85
80198;BME280;69517;52.030;7.106;2024-03-02T02:21:52;99125.63;;;20.82;65.98
80198;BME280;69517;52.030;7.106;2024-03-02T02:24:18;99130.88;;;20.82;65.73
80198;BME280;69517;52.030;7.106;2024-03-02T02:26:44;99119.69;;;20.80;65.69
80198;BME280;69517;52.030;7.106;2024-03-02T02:29:11;99123.13;;;20.80;65.88
80198;BME280;69517;52.030;7.106;2024-03-02T02:31:37;99122.31;;;20.80;65.84
80198;BME280;69517;52.030;7.106;2024-03-02T02:34:04;99120.66;;;20.79;65.74
80198;BME280;69517;52.030;7.106;2024-03-02T02:36:30;99111.13;;;20.78;65.77
80198;BME280;69517;52.030;7.106;2024-03-02T02:39:00;99107.66;;;20.77;65.77
80198;BME280;69517;52.030;7.106;2024-03-02T02:41:29;99112.09;;;20.77;65.87
80198;BME280;69517;52.030;7.106;2024-03-02T02:43:55;99113.88;;;20.76;65.87
80198;BME280;69517;52.030;7.106;2024-03-02T02:46:22;99113.06;;;20.76;65.93
80198;BME280;69517;52.030;7.106;2024-03-02T02:48:48;99120.94;;;20.76;65.81
80198;BME280;69517;52.030;7.106;2024-03-02T02:51:16;99113.88;;;20.76;65.81
80198;BME280;69517;52.030;7.106;2024-03-02T02:53:42;99111.38;;;20.75;65.76
80198;BME280;69517;52.030;7.106;2024-03-02T02:56:10;99112.38;;;20.74;65.83
80198;BME280;69517;52.030;7.106;2024-03-02T02:58:37;99108.09;;;20.73;65.79
80198;BME280;69517;52.030;7.106;2024-03-02T03:01:03;99115.16;;;20.72;65.90
80198;BME280;69517;52.030;7.106;2024-03-02T03:03:30;99113.34;;;20.73;65.85
80198;BME280;69517;52.030;7.106;2024-03-02T03:05:56;99115.97;;;20.73;65.77
80198;BME280;69517;52.030;7.106;2024-03-02T03:08:22;99111.56;;;20.73;65.74
80198;BME280;69517;52.030;7.106;2024-03-02T03:10:49;99115.28;;;20.71;65.93
80198;BME280;69517;52.030;7.106;2024-03-02T03:13:17;99112.50;;;20.72;65.93
80198;BME280;69517;52.030;7.106;2024-03-02T03:15:43;99119.69;;;20.70;65.95
80198;BME280;69517;52.030;7.106;2024-03-02T03:18:09;99121.50;;;20.70;65.77
80198;BME280;69517;52.030;7.106;2024-03-02T03:20:36;99121.63;;;20.68;65.85
80198;BME280;69517;52.030;7.106;2024-03-02T03:23:03;99124.25;;;20.68;65.89
80198;BME280;69517;52.030;7.106;2024-03-02T03:25:30;99121.78;;;20.67;65.88
80198;BME280;69517;52.030;7.106;2024-03-02T03:27:56;99116.66;;;20.65;65.88
80198;BME280;69517;52.030;7.106;2024-03-02T03:30:24;99120.13;;;20.65;65.78
80198;BME280;69517;52.030;7.106;2024-03-02T03:32:50;99116.66;;;20.65;65.94
80198;BME280;69517;52.030;7.106;2024-03-02T03:35:16;99119.41;;;20.63;66.18
80198;BME280;69517;52.030;7.106;2024-03-02T03:37:43;99113.63;;;20.60;65.86
80198;BME280;69517;52.030;7.106;2024-03-02T03:40:10;99112.50;;;20.62;65.83
80198;BME280;69517;52.030;7.106;2024-03-02T03:42:36;99111.00;;;20.60;65.92
80198;BME280;69517;52.030;7.106;2024-03-02T03:45:03;99109.75;;;20.64;65.85
80198;BME280;69517;52.030;7.106;2024-03-02T03:47:32;99107.13;;;20.64;65.84
80198;BME280;69517;52.030;7.106;2024-03-02T03:49:58;99113.22;;;20.64;65.80
80198;BME280;69517;52.030;7.106;2024-03-02T03:52:25;99116.66;;;20.65;65.79
80198;BME280;69517;52.030;7.106;2024-03-02T03:54:51;99115.84;;;20.64;65.88
80198;BME280;69517;52.030;7.106;2024-03-02T03:57:17;99113.22;;;20.64;65.83
80198;BME280;69517;52.030;7.106;2024-03-02T03:59:44;99119.41;;;20.63;65.73
80198;BME280;69517;52.030;7.106;2024-03-02T04:02:11;99124.53;;;20.65;65.69
80198;BME280;69517;52.030;7.106;2024-03-02T04:04:39;99125.50;;;20.64;65.65
80198;BME280;69517;52.030;7.106;2024-03-02T04:07:05;99123.97;;;20.61;66.19
80198;BME280;69517;52.030;7.106;2024-03-02T04:09:32;99121.63;;;20.58;66.23
80198;BME280;69517;52.030;7.106;2024-03-02T04:11:58;99125.38;;;20.56;65.99
80198;BME280;69517;52.030;7.106;2024-03-02T04:14:24;99137.66;;;20.55;65.71
80198;BME280;69517;52.030;7.106;2024-03-02T04:16:51;99133.41;;;20.54;65.93
80198;BME280;69517;52.030;7.106;2024-03-02T04:19:17;99131.75;;;20.53;65.97
80198;BME280;69517;52.030;7.106;2024-03-02T04:21:45;99134.38;;;20.53;66.00
80198;BME280;69517;52.030;7.106;2024-03-02T04:24:11;99137.81;;;20.54;66.04
80198;BME280;69517;52.030;7.106;2024-03-02T04:26:37;99144.88;;;20.53;66.11
80198;BME280;69517;52.030;7.106;2024-03-02T04:29:04;99147.50;;;20.53;66.03
80198;BME280;69517;52.030;7.106;2024-03-02T04:31:30;99147.50;;;20.53;66.17
80198;BME280;69517;52.030;7.106;2024-03-02T04:33:57;99145.00;;;20.52;65.94
80198;BME280;69517;52.030;7.106;2024-03-02T04:36:23;99153.72;;;20.52;66.08
80198;BME280;69517;52.030;7.106;2024-03-02T04:38:51;99152.03;;;20.51;66.13
80198;BME280;69517;52.030;7.106;2024-03-02T04:41:17;99159.09;;;20.51;66.12
80198;BME280;69517;52.030;7.106;2024-03-02T04:43:44;99157.41;;;20.50;66.44
80198;BME280;69517;52.030;7.106;2024-03-02T04:46:10;99155.78;;;20.49;66.33
80198;BME280;69517;52.030;7.106;2024-03-02T04:48:36;99164.47;;;20.49;66.26
80198;BME280;69517;52.030;7.106;2024-03-02T04:51:03;99170.00;;;20.46;66.46
80198;BME280;69517;52.030;7.106;2024-03-02T04:53:29;99167.38;;;20.46;66.46
80198;BME280;69517;52.030;7.106;2024-03-02T04:55:57;99177.88;;;20.46;66.85
80198;BME280;69517;52.030;7.106;2024-03-02T04:58:41;99175.69;;;20.42;66.85
80198;BME280;69517;52.030;7.106;2024-03-02T05:01:07;99171.25;;;20.42;66.66
80198;BME280;69517;52.030;7.106;2024-03-02T05:03:33;99174.72;;;20.43;66.54
80198;BME280;69517;52.030;7.106;2024-03-02T05:06:00;99170.25;;;20.43;66.70
80198;BME280;69517;52.030;7.106;2024-03-02T05:08:26;99172.88;;;20.43;66.78
80198;BME280;69517;52.030;7.106;2024-03-02T05:10:53;99163.50;;;20.41;66.77
80198;BME280;69517;52.030;7.106;2024-03-02T05:13:20;99171.50;;;20.39;66.69
80198;BME280;69517;52.030;7.106;2024-03-02T05:15:46;99175.09;;;20.38;66.85
80198;BME280;69517;52.030;7.106;2024-03-02T05:18:12;99179.69;;;20.36;66.65
80198;BME280;69517;52.030;7.106;2024-03-02T05:20:38;99175.09;;;20.38;66.88
80198;BME280;69517;52.030;7.106;2024-03-02T05:23:05;99183.94;;;20.37;66.91
80198;BME280;69517;52.030;7.106;2024-03-02T05:25:31;99186.31;;;20.40;66.77
80198;BME280;69517;52.030;7.106;2024-03-02T05:27:57;99181.75;;;20.42;66.84
80198;BME280;69517;52.030;7.106;2024-03-02T05:30:25;99184.94;;;20.46;66.53
80198;BME280;69517;52.030;7.106;2024-03-02T05:32:52;99191.72;;;20.48;66.46
80198;BME280;69517;52.030;7.106;2024-03-02T05:35:18;99188.78;;;20.51;66.12
80198;BME280;69517;52.030;7.106;2024-03-02T05:37:45;99192.78;;;20.55;65.96
80198;BME280;69517;52.030;7.106;2024-03-02T05:40:11;99192.41;;;20.60;65.87
80198;BME280;69517;52.030;7.106;2024-03-02T05:42:38;99197.38;;;20.63;65.94
80198;BME280;69517;52.030;7.106;2024-03-02T05:45:06;99180.66;;;20.64;65.94
80198;BME280;69517;52.030;7.106;2024-03-02T05:47:34;99184.81;;;20.67;65.91
80198;BME280;69517;52.030;7.106;2024-03-02T05:50:00;99184.81;;;20.67;65.90
80198;BME280;69517;52.030;7.106;2024-03-02T05:52:27;99189.78;;;20.70;65.97
80198;BME280;69517;52.030;7.106;2024-03-02T05:54:53;99188.81;;;20.71;66.00
80198;BME280;69517;52.030;7.106;2024-03-02T05:57:20;99179.84;;;20.73;66.06
80198;BME280;69517;52.030;7.106;2024-03-02T05:59:59;99184.94;;;20.75;65.84
80198;BME280;69517;52.030;7.106;2024-03-02T06:02:25;99190.19;;;20.75;66.06
80198;BME280;69517;52.030;7.106;2024-03-02T06:04:54;99195.31;;;20.76;66.04
80198;BME280;69517;52.030;7.106;2024-03-02T06:07:21;99186.47;;;20.77;66.02
80198;BME280;69517;52.030;7.106;2024-03-02T06:09:47;99173.31;;;20.77;66.06
80198;BME280;69517;52.030;7.106;2024-03-02T06:12:15;99200.28;;;20.79;66.02
80198;BME280;69517;52.030;7.106;2024-03-02T06:14:42;99196.84;;;20.79;66.05
80198;BME280;69517;52.030;7.106;2024-03-02T06:17:09;99195.88;;;20.80;66.06
80198;BME280;69517;52.030;7.106;2024-03-02T06:19:35;99205.38;;;20.81;66.04
80198;BME280;69517;52.030;7.106;2024-03-02T06:22:03;99208.00;;;20.81;66.00
80198;BME280;69517;52.030;7.106;2024-03-02T06:24:30;99210.63;;;20.81;66.07
80198;BME280;69517;52.030;7.106;2024-03-02T06:26:57;99208.72;;;20.83;65.93
80198;BME280;69517;52.030;7.106;2024-03-02T06:29:22;99213.97;;;20.83;66.14
80198;BME280;69517;52.030;7.106;2024-03-02T06:31:48;99216.59;;;20.83;65.98
80198;BME280;69517;52.030;7.106;2024-03-02T06:34:15;99218.25;;;20.84;66.07
80198;BME280;69517;52.030;7.106;2024-03-02T06:36:41;99217.28;;;20.85;66.10
80198;BME280;69517;52.030;7.106;2024-03-02T06:39:09;99229.47;;;20.86;65.98
80198;BME280;69517;52.030;7.106;2024-03-02T06:41:37;99228.47;;;20.87;65.94
80198;BME280;69517;52.030;7.106;2024-03-02T06:44:04;99233.47;;;20.90;65.85
80198;BME280;69517;52.030;7.106;2024-03-02T06:46:31;99232.63;;;20.99;65.61
80198;BME280;69517;52.030;7.106;2024-03-02T06:48:58;99235.38;;;21.07;65.38
80198;BME280;69517;52.030;7.106;2024-03-02T06:51:24;99234.69;;;21.15;65.17
80198;BME280;69517;52.030;7.106;2024-03-02T06:53:50;99240.38;;;21.20;65.04
80198;BME280;69517;52.030;7.106;2024-03-02T06:56:18;99232.06;;;21.24;64.79
80198;BME280;69517;52.030;7.106;2024-03-02T06:58:44;99231.13;;;21.25;64.77
80198;BME280;69517;52.030;7.106;2024-03-02T07:01:11;99236.91;;;21.29;64.81
80198;BME280;69517;52.030;7.106;2024-03-02T07:03:37;99234.53;;;21.35;64.55
80198;BME280;69517;52.030;7.106;2024-03-02T07:06:04;99227.63;;;21.44;64.48
80198;BME280;69517;52.030;7.106;2024-03-02T07:08:30;99235.91;;;21.49;64.15
80198;BME280;69517;52.030;7.106;2024-03-02T07:10:57;99232.84;;;21.54;64.15
80198;BME280;69517;52.030;7.106;2024-03-02T07:13:24;99244.34;;;21.53;64.22
80198;BME280;69517;52.030;7.106;2024-03-02T07:15:51;99244.06;;;21.56;64.10
80198;BME280;69517;52.030;7.106;2024-03-02T07:18:45;99249.03;;;21.59;64.04
80198;BME280;69517;52.030;7.106;2024-03-02T07:21:16;99246.81;;;21.64;63.88
80198;BME280;69517;52.030;7.106;2024-03-02T07:23:43;99251.78;;;21.67;63.85
80198;BME280;69517;52.030;7.106;2024-03-02T07:26:09;99266.44;;;21.69;63.87
80198;BME280;69517;52.030;7.106;2024-03-02T07:28:37;99273.50;;;21.69;63.88
80198;BME280;69517;52.030;7.106;2024-03-02T07:31:04;99277.81;;;21.70;63.88
80198;BME280;69517;52.030;7.106;2024-03-02T07:33:30;99268.94;;;21.71;63.92
80198;BME280;69517;52.030;7.106;2024-03-02T07:35:57;99271.72;;;21.69;64.17
80198;BME280;69517;52.030;7.106;2024-03-02T07:38:24;99281.13;;;21.62;64.30
80198;BME280;69517;52.030;7.106;2024-03-02T07:40:51;99272.56;;;21.60;64.39
80198;BME280;69517;52.030;7.106;2024-03-02T07:43:18;99285.56;;;21.62;64.50
80198;BME280;69517;52.030;7.106;2024-03-02T07:45:46;99292.63;;;21.61;64.62
80198;BME280;69517;52.030;7.106;2024-03-02T07:48:13;99296.25;;;21.51;63.35
80198;BME280;69517;52.030;7.106;2024-03-02T07:50:39;99285.75;;;21.31;62.09
80198;BME280;69517;52.030;7.106;2024-03-02T07:53:06;99290.59;;;21.17;59.71
80198;BME280;69517;52.030;7.106;2024-03-02T07:55:32;99295.00;;;21.06;58.80
80198;BME280;69517;52.030;7.106;2024-03-02T07:57:59;99297.91;;;20.94;57.67
80198;BME280;69517;52.030;7.106;2024-03-02T08:00:26;99302.03;;;20.87;57.56
80198;BME280;69517;52.030;7.106;2024-03-02T08:02:54;99301.31;;;20.75;57.24
80198;BME280;69517;52.030;7.106;2024-03-02T08:05:20;99301.19;;;20.86;57.98
80198;BME280;69517;52.030;7.106;2024-03-02T08:07:47;99302.59;;;21.00;59.30
80198;BME280;69517;52.030;7.106;2024-03-02T08:10:17;99306.75;;;21.12;59.23
80198;BME280;69517;52.030;7.106;2024-03-02T08:12:44;99305.97;;;21.21;59.14
80198;BME280;69517;52.030;7.106;2024-03-02T08:15:10;99305.81;;;21.32;58.93
80198;BME280;69517;52.030;7.106;2024-03-02T08:17:37;99309.56;;;21.39;59.07
80198;BME280;69517;52.030;7.106;2024-03-02T08:20:08;99315.91;;;21.47;59.33
80198;BME280;69517;52.030;7.106;2024-03-02T08:22:34;99316.16;;;21.53;59.46
80198;BME280;69517;52.030;7.106;2024-03-02T08:25:01;99306.91;;;21.59;59.51
80198;BME280;69517;52.030;7.106;2024-03-02T08:27:27;99312.84;;;21.61;59.88
80198;BME280;69517;52.030;7.106;2024-03-02T08:29:54;99306.22;;;21.57;60.20
80198;BME280;69517;52.030;7.106;2024-03-02T08:32:20;99308.41;;;21.61;60.28
80198;BME280;69517;52.030;7.106;2024-03-02T08:34:47;99313.53;;;21.63;60.30
80198;BME280;69517;52.030;7.106;2024-03-02T08:37:15;99315.19;;;21.64;60.40
80198;BME280;69517;52.030;7.106;2024-03-02T08:39:41;99325.41;;;21.67;60.65
80198;BME280;69517;52.030;7.106;2024-03-02T08:42:09;99312.28;;;21.67;60.61
80198;BME280;69517;52.030;7.106;2024-03-02T08:44:35;99321.13;;;21.66;60.75
80198;BME280;69517;52.030;7.106;2024-03-02T08:47:02;99322.78;;;21.67;60.87
80198;BME280;69517;52.030;7.106;2024-03-02T08:49:28;99325.16;;;21.70;60.91
80198;BME280;69517;52.030;7.106;2024-03-02T08:51:54;99332.09;;;21.71;60.97
80198;BME280;69517;52.030;7.106;2024-03-02T08:54:22;99332.22;;;21.69;61.00
80198;BME280;69517;52.030;7.106;2024-03-02T08:56:48;99329.03;;;21.56;61.03
80198;BME280;69517;52.030;7.106;2024-03-02T08:59:15;99331.69;;;21.47;60.64
80198;BME280;69517;52.030;7.106;2024-03-02T09:01:42;99335.97;;;21.48;60.30
80198;BME280;69517;52.030;7.106;2024-03-02T09:04:08;99339.41;;;21.48;60.44
80198;BME280;69517;52.030;7.106;2024-03-02T09:06:34;99343.19;;;21.45;60.30
80198;BME280;69517;52.030;7.106;2024-03-02T09:09:01;99339.59;;;21.47;60.30
80198;BME280;69517;52.030;7.106;2024-03-02T09:11:29;99342.88;;;21.49;60.13
80198;BME280;69517;52.030;7.106;2024-03-02T09:13:55;99353.41;;;21.49;60.17
80198;BME280;69517;52.030;7.106;2024-03-02T09:16:22;99338.59;;;21.48;60.16
80198;BME280;69517;52.030;7.106;2024-03-02T09:18:49;99339.59;;;21.47;60.32
80198;BME280;69517;52.030;7.106;2024-03-02T09:21:15;99329.06;;;21.47;60.49
80198;BME280;69517;52.030;7.106;2024-03-02T09:23:42;99342.34;;;21.45;60.54
80198;BME280;69517;52.030;7.106;2024-03-02T09:26:10;99343.31;;;21.44;60.80
80198;BME280;69517;52.030;7.106;2024-03-02T09:28:38;99346.78;;;21.44;60.97
80198;BME280;69517;52.030;7.106;2024-03-02T09:31:05;99342.47;;;21.43;61.05
80198;BME280;69517;52.030;7.106;2024-03-02T09:33:31;99348.44;;;21.45;61.03
80198;BME280;69517;52.030;7.106;2024-03-02T09:35:57;99342.22;;;21.47;61.08
80198;BME280;69517;52.030;7.106;2024-03-02T09:38:24;99342.22;;;21.47;61.14
80198;BME280;69517;52.030;7.106;2024-03-02T09:40:50;99339.41;;;21.48;61.22
80198;BME280;69517;52.030;7.106;2024-03-02T09:43:17;99344.97;;;21.45;61.35
80198;BME280;69517;52.030;7.106;2024-03-02T09:45:44;99347.59;;;21.45;61.43
80198;BME280;69517;52.030;7.106;2024-03-02T09:48:11;99346.78;;;21.44;61.55
80198;BME280;69517;52.030;7.106;2024-03-02T09:50:38;99347.03;;;21.41;62.02
80198;BME280;69517;52.030;7.106;2024-03-02T09:53:04;99335.84;;;21.39;61.91
80198;BME280;69517;52.030;7.106;2024-03-02T09:55:31;99338.88;;;21.35;62.05
80198;BME280;69517;52.030;7.106;2024-03-02T09:57:57;99344.97;;;21.35;61.93
80198;BME280;69517;52.030;7.106;2024-03-02T10:00:24;99343.03;;;21.37;61.87
80198;BME280;69517;52.030;7.106;2024-03-02T10:02:51;99341.09;;;21.39;61.92
80198;BME280;69517;52.030;7.106;2024-03-02T10:05:24;99337.66;;;21.39;61.89
80198;BME280;69517;52.030;7.106;2024-03-02T10:07:58;99339.97;;;21.42;61.94
80198;BME280;69517;52.030;7.106;2024-03-02T10:10:23;99343.44;;;21.42;61.88
80198;BME280;69517;52.030;7.106;2024-03-02T10:12:51;99334.59;;;21.43;61.90
80198;BME280;69517;52.030;7.106;2024-03-02T10:15:30;99344.16;;;21.44;61.97
80198;BME280;69517;52.030;7.106;2024-03-02T10:17:57;99347.47;;;21.47;61.89
80198;BME280;69517;52.030;7.106;2024-03-02T10:20:24;99337.91;;;21.45;61.94
80198;BME280;69517;52.030;7.106;2024-03-02T10:22:51;99340.56;;;21.45;62.11
80198;BME280;69517;52.030;7.106;2024-03-02T10:25:29;99335.28;;;21.45;62.07
80198;BME280;69517;52.030;7.106;2024-03-02T10:27:57;99336.97;;;21.47;62.09
80198;BME280;69517;52.030;7.106;2024-03-02T10:30:23;99331.00;;;21.44;62.28
80198;BME280;69517;52.030;7.106;2024-03-02T10:32:49;99328.38;;;21.44;62.28
80198;BME280;69517;52.030;7.106;2024-03-02T10:35:17;99332.78;;;21.44;62.45
80198;BME280;69517;52.030;7.106;2024-03-02T10:37:43;99333.63;;;21.44;62.40
80198;BME280;69517;52.030;7.106;2024-03-02T10:40:10;99330.03;;;21.45;62.45
80198;BME280;69517;52.030;7.106;2024-03-02T10:42:37;99317.00;;;21.44;62.57
80198;BME280;69517;52.030;7.106;2024-03-02T10:45:04;99325.03;;;21.42;62.51
80198;BME280;69517;52.030;7.106;2024-03-02T10:47:31;99325.16;;;21.41;62.64
80198;BME280;69517;52.030;7.106;2024-03-02T10:49:59;99319.09;;;21.40;62.68
80198;BME280;69517;52.030;7.106;2024-03-02T10:52:29;99332.25;;;21.40;62.71
80198;BME280;69517;52.030;7.106;2024-03-02T10:54:55;99321.88;;;21.39;62.78
80198;BME280;69517;52.030;7.106;2024-03-02T10:57:21;99321.88;;;21.39;62.77
80198;BME280;69517;52.030;7.106;2024-03-02T10:59:51;99327.25;;;21.37;62.88
80198;BME280;69517;52.030;7.106;2024-03-02T11:02:18;99322.00;;;21.37;63.01
80198;BME280;69517;52.030;7.106;2024-03-02T11:04:47;99322.84;;;21.38;63.04
80198;BME280;69517;52.030;7.106;2024-03-02T11:07:15;99310.66;;;21.37;62.97
80198;BME280;69517;52.030;7.106;2024-03-02T11:09:49;99306.34;;;21.36;63.08
80198;BME280;69517;52.030;7.106;2024-03-02T11:12:19;99307.19;;;21.36;63.07
80198;BME280;69517;52.030;7.106;2024-03-02T11:14:45;99309.00;;;21.36;63.14
80198;BME280;69517;52.030;7.106;2024-03-02T11:17:13;99308.16;;;21.35;63.17
80198;BME280;69517;52.030;7.106;2024-03-02T11:19:40;99316.03;;;21.35;63.26
80198;BME280;69517;52.030;7.106;2024-03-02T11:22:07;99317.03;;;21.34;63.35
80198;BME280;69517;52.030;7.106;2024-03-02T11:24:34;99315.38;;;21.33;63.32
80198;BME280;69517;52.030;7.106;2024-03-02T11:27:03;99317.84;;;21.35;63.39
80198;BME280;69517;52.030;7.106;2024-03-02T11:42:05;99310.38;;;21.30;63.05
80198;BME280;69517;52.030;7.106;2024-03-02T11:44:32;99313.13;;;21.29;62.79
80198;BME280;69517;52.030;7.106;2024-03-02T11:46:59;99313.97;;;21.29;62.96
80198;BME280;69517;52.030;7.106;2024-03-02T11:49:36;99309.84;;;21.27;63.04
80198;BME280;69517;52.030;7.106;2024-03-02T11:52:03;99294.88;;;21.18;59.34
80198;BME280;69517;52.030;7.106;2024-03-02T11:54:31;99296.94;;;21.14;59.75
80198;BME280;69517;52.030;7.106;2024-03-02T11:56:59;99296.00;;;21.15;60.64
80198;BME280;69517;52.030;7.106;2024-03-02T11:59:27;99287.25;;;21.15;61.00
80198;BME280;69517;52.030;7.106;2024-03-02T12:01:54;99289.06;;;21.14;60.08
80198;BME280;69517;52.030;7.106;2024-03-02T12:04:21;99296.00;;;21.15;59.96
80198;BME280;69517;52.030;7.106;2024-03-02T12:06:48;99288.78;;;21.17;59.68
80198;BME280;69517;52.030;7.106;2024-03-02T12:09:15;99282.88;;;21.15;60.90
80198;BME280;69517;52.030;7.106;2024-03-02T12:11:41;99277.44;;;21.17;60.77
80198;BME280;69517;52.030;7.106;2024-03-02T12:14:10;99279.13;;;21.18;60.67
80198;BME280;69517;52.030;7.106;2024-03-02T12:16:39;99276.91;;;21.23;60.29
80198;BME280;69517;52.030;7.106;2024-03-02T12:19:09;99268.03;;;21.24;59.76
80198;BME280;69517;52.030;7.106;2024-03-02T12:21:35;99268.63;;;21.27;59.55
80198;BME280;69517;52.030;7.106;2024-03-02T12:24:02;99270.28;;;21.28;59.59
80198;BME280;69517;52.030;7.106;2024-03-02T12:26:29;99272.75;;;21.30;59.34
80198;BME280;69517;52.030;7.106;2024-03-02T12:28:55;99265.03;;;21.28;59.39
80198;BME280;69517;52.030;7.106;2024-03-02T12:31:21;99263.06;;;21.30;59.05
80198;BME280;69517;52.030;7.106;2024-03-02T12:33:49;99262.78;;;21.33;59.02
80198;BME280;69517;52.030;7.106;2024-03-02T12:36:16;99259.47;;;21.31;59.65
80198;BME280;69517;52.030;7.106;2024-03-02T12:38:43;99251.31;;;21.34;60.89
80198;BME280;69517;52.030;7.106;2024-03-02T12:41:09;99253.66;;;21.37;61.97
80198;BME280;69517;52.030;7.106;2024-03-02T12:43:35;99251.72;;;21.39;62.29
80198;BME280;69517;52.030;7.106;2024-03-02T12:46:02;99251.28;;;21.44;62.68
80198;BME280;69517;52.030;7.106;2024-03-02T12:48:29;99246.56;;;21.48;62.74
80198;BME280;69517;52.030;7.106;2024-03-02T12:50:56;99252.66;;;21.48;62.51
80198;BME280;69517;52.030;7.106;2024-03-02T12:53:23;99254.63;;;21.46;62.51
80198;BME280;69517;52.030;7.106;2024-03-02T12:55:49;99247.56;;;21.47;62.50
80198;BME280;69517;52.030;7.106;2024-03-02T12:58:16;99251.16;;;21.45;62.47
80198;BME280;69517;52.030;7.106;2024-03-02T13:00:43;99252.81;;;21.47;62.39
80198;BME280;69517;52.030;7.106;2024-03-02T13:03:09;99247.69;;;21.45;62.42
80198;BME280;69517;52.030;7.106;2024-03-02T13:05:35;99243.25;;;21.45;62.24
80198;BME280;69517;52.030;7.106;2024-03-02T13:08:04;99244.75;;;21.48;62.15
80198;BME280;69517;52.030;7.106;2024-03-02T13:10:32;99239.38;;;21.50;62.25
80198;BME280;69517;52.030;7.106;2024-03-02T13:12:58;99232.31;;;21.50;62.19